sensor_id;sensor_type;location;lat;lon;timestamp;P1;durP1;ratioP1;P2;durP2;ratioP2
8675;SDS011;4375;52.486;13.424;2023-10-09T00:00:11;15.70;;;3.00;;
8675;SDS011;4375;52.486;13.424;2023-10-09T00:02:57;16.40;;;3.17;;
8675;SDS011;4375;52.486;13.424;2023-10-09T00:05:35;16.57;;;3.17;;
8675;SDS011;4375;52.486;13.424;2023-10-09T00:08:13;17.00;;;3.17;;
8675;SDS011;4375;52.486;13.424;2023-10-09T00:11:09;19.97;;;3.20;;
8675;SDS011;4375;52.486;13.424;2023-10-09T00:13:41;18.07;;;3.23;;
8675;SDS011;4375;52.486;13.424;2023-10-09T00:16:21;18.23;;;3.00;;
8675;SDS011;4375;52.486;13.424;2023-10-09T00:19:03;19.63;;;3.43;;
8675;SDS011;4375;52.486;13.424;2023-10-09T00:21:46;16.37;;;3.13;;
8675;SDS011;4375;52.486;13.424;2023-10-09T00:24:13;18.97;;;4.50;;
8675;SDS011;4375;52.486;13.424;2023-10-09T00:26:40;18.00;;;3.60;;
8675;SDS011;4375;52.486;13.424;2023-10-09T00:29:11;19.20;;;3.37;;
8675;SDS011;4375;52.486;13.424;2023-10-09T00:31:41;16.03;;;3.10;;
8675;SDS011;4375;52.486;13.424;2023-10-09T00:34:15;16.63;;;2.87;;
8675;SDS011;4375;52.486;13.424;2023-10-09T00:36:44;19.00;;;3.90;;
8675;SDS011;4375;52.486;13.424;2023-10-09T00:39:20;18.23;;;3.53;;
8675;SDS011;4375;52.486;13.424;2023-10-09T00:42:01;17.00;;;3.30;;
8675;SDS011;4375;52.486;13.424;2023-10-09T00:44:28;16.07;;;3.13;;
8675;SDS011;4375;52.486;13.424;2023-10-09T00:47:07;16.30;;;2.90;;
8675;SDS011;4375;52.486;13.424;2023-10-09T00:49:58;19.07;;;3.13;;
8675;SDS011;4375;52.486;13.424;2023-10-09T00:52:41;15.83;;;3.20;;
8675;SDS011;4375;52.486;13.424;2023-10-09T00:55:19;16.80;;;2.97;;
8675;SDS011;4375;52.486;13.424;2023-10-09T00:58:13;18.53;;;3.53;;
8675;SDS011;4375;52.486;13.424;2023-10-09T01:00:40;16.37;;;2.97;;
8675;SDS011;4375;52.486;13.424;2023-10-09T01:03:09;20.00;;;3.73;;
8675;SDS011;4375;52.486;13.424;2023-10-09T01:08:18;16.30;;;3.20;;
8675;SDS011;4375;52.486;13.424;2023-10-09T01:10:55;17.70;;;3.57;;
8675;SDS011;4375;52.486;13.424;2023-10-09T01:13:46;19.73;;;3.23;;
8675;SDS011;4375;52.486;13.424;2023-10-09T01:16:16;17.80;;;3.23;;
8675;SDS011;4375;52.486;13.424;2023-10-09T01:18:43;16.33;;;2.87;;
8675;SDS011;4375;52.486;13.424;2023-10-09T01:21:18;17.27;;;4.10;;
8675;SDS011;4375;52.486;13.424;2023-10-09T01:23:52;16.60;;;3.20;;
8675;SDS011;4375;52.486;13.424;2023-10-09T01:26:27;17.43;;;3.00;;
8675;SDS011;4375;52.486;13.424;2023-10-09T01:28:57;19.43;;;2.70;;
8675;SDS011;4375;52.486;13.424;2023-10-09T01:31:25;15.60;;;2.77;;
8675;SDS011;4375;52.486;13.424;2023-10-09T01:33:54;17.27;;;3.30;;
8675;SDS011;4375;52.486;13.424;2023-10-09T01:36:24;16.37;;;3.07;;
8675;SDS011;4375;52.486;13.424;2023-10-09T01:38:58;16.47;;;3.60;;
8675;SDS011;4375;52.486;13.424;2023-10-09T01:41:35;16.80;;;2.83;;
8675;SDS011;4375;52.486;13.424;2023-10-09T01:44:11;17.03;;;3.97;;
8675;SDS011;4375;52.486;13.424;2023-10-09T01:46:37;17.17;;;3.53;;
8675;SDS011;4375;52.486;13.424;2023-10-09T01:49:02;15.50;;;3.00;;
8675;SDS011;4375;52.486;13.424;2023-10-09T01:51:33;17.33;;;3.87;;
8675;SDS011;4375;52.486;13.424;2023-10-09T01:54:01;17.43;;;3.00;;
8675;SDS011;4375;52.486;13.424;2023-10-09T01:56:28;19.87;;;3.60;;
8675;SDS011;4375;52.486;13.424;2023-10-09T01:58:53;17.67;;;3.20;;
8675;SDS011;4375;52.486;13.424;2023-10-09T02:01:27;16.50;;;3.37;;
8675;SDS011;4375;52.486;13.424;2023-10-09T02:03:53;17.73;;;3.43;;
8675;SDS011;4375;52.486;13.424;2023-10-09T02:06:19;19.97;;;3.93;;
8675;SDS011;4375;52.486;13.424;2023-10-09T02:08:57;16.97;;;3.60;;
8675;SDS011;4375;52.486;13.424;2023-10-09T02:11:24;17.30;;;3.57;;
8675;SDS011;4375;52.486;13.424;2023-10-09T02:14:02;22.70;;;3.93;;
8675;SDS011;4375;52.486;13.424;2023-10-09T02:16:31;19.67;;;3.90;;
8675;SDS011;4375;52.486;13.424;2023-10-09T02:19:07;17.00;;;2.87;;
8675;SDS011;4375;52.486;13.424;2023-10-09T02:21:53;20.27;;;3.90;;
8675;SDS011;4375;52.486;13.424;2023-10-09T02:24:21;17.80;;;4.10;;
8675;SDS011;4375;52.486;13.424;2023-10-09T03:34:35;19.00;;;3.93;;
8675;SDS011;4375;52.486;13.424;2023-10-09T03:37:59;21.90;;;4.00;;
8675;SDS011;4375;52.486;13.424;2023-10-09T03:40:42;16.80;;;3.30;;
8675;SDS011;4375;52.486;13.424;2023-10-09T03:44:08;24.00;;;4.33;;
8675;SDS011;4375;52.486;13.424;2023-10-09T03:46:45;17.53;;;3.60;;
8675;SDS011;4375;52.486;13.424;2023-10-09T03:53:45;17.63;;;3.87;;
8675;SDS011;4375;52.486;13.424;2023-10-09T03:57:13;16.10;;;3.13;;
8675;SDS011;4375;52.486;13.424;2023-10-09T04:03:15;15.60;;;2.60;;
8675;SDS011;4375;52.486;13.424;2023-10-09T04:05:55;16.73;;;3.03;;
8675;SDS011;4375;52.486;13.424;2023-10-09T04:09:20;15.57;;;3.00;;
8675;SDS011;4375;52.486;13.424;2023-10-09T04:16:03;17.30;;;3.37;;
8675;SDS011;4375;52.486;13.424;2023-10-09T04:19:16;17.80;;;4.13;;
8675;SDS011;4375;52.486;13.424;2023-10-09T04:21:58;19.27;;;4.60;;
8675;SDS011;4375;52.486;13.424;2023-10-09T04:24:51;17.83;;;3.97;;
8675;SDS011;4375;52.486;13.424;2023-10-09T04:27:18;20.10;;;4.40;;
8675;SDS011;4375;52.486;13.424;2023-10-09T04:30:48;16.83;;;3.90;;
8675;SDS011;4375;52.486;13.424;2023-10-09T04:34:22;17.87;;;3.83;;
8675;SDS011;4375;52.486;13.424;2023-10-09T04:37:22;19.47;;;4.00;;
8675;SDS011;4375;52.486;13.424;2023-10-09T04:40:29;17.70;;;4.00;;
8675;SDS011;4375;52.486;13.424;2023-10-09T04:43:55;18.00;;;4.40;;
8675;SDS011;4375;52.486;13.424;2023-10-09T04:54:35;17.20;;;3.77;;
8675;SDS011;4375;52.486;13.424;2023-10-09T04:57:30;25.60;;;5.70;;
8675;SDS011;4375;52.486;13.424;2023-10-09T05:00:53;18.80;;;3.77;;
8675;SDS011;4375;52.486;13.424;2023-10-09T05:11:28;17.20;;;3.90;;
8675;SDS011;4375;52.486;13.424;2023-10-09T05:14:37;17.83;;;3.63;;
8675;SDS011;4375;52.486;13.424;2023-10-09T05:18:06;21.10;;;4.70;;
8675;SDS011;4375;52.486;13.424;2023-10-09T05:35:20;18.33;;;3.63;;
8675;SDS011;4375;52.486;13.424;2023-10-09T05:38:32;17.20;;;3.10;;
8675;SDS011;4375;52.486;13.424;2023-10-09T05:48:28;19.30;;;3.47;;
8675;SDS011;4375;52.486;13.424;2023-10-09T06:01:45;17.70;;;4.17;;
8675;SDS011;4375;52.486;13.424;2023-10-09T06:04:53;16.13;;;3.47;;
8675;SDS011;4375;52.486;13.424;2023-10-09T06:10:41;19.23;;;3.47;;
8675;SDS011;4375;52.486;13.424;2023-10-09T06:13:48;17.23;;;3.37;;
8675;SDS011;4375;52.486;13.424;2023-10-09T06:20:19;22.13;;;3.70;;
8675;SDS011;4375;52.486;13.424;2023-10-09T06:30:16;15.50;;;3.20;;
8675;SDS011;4375;52.486;13.424;2023-10-09T06:37:13;18.67;;;3.37;;
8675;SDS011;4375;52.486;13.424;2023-10-09T06:39:56;16.97;;;3.77;;
8675;SDS011;4375;52.486;13.424;2023-10-09T06:42:25;19.10;;;4.27;;
8675;SDS011;4375;52.486;13.424;2023-10-09T06:45:11;15.90;;;3.53;;
8675;SDS011;4375;52.486;13.424;2023-10-09T06:47:47;20.60;;;3.70;;
8675;SDS011;4375;52.486;13.424;2023-10-09T06:50:35;19.43;;;3.57;;
8675;SDS011;4375;52.486;13.424;2023-10-09T06:53:36;18.60;;;3.57;;
8675;SDS011;4375;52.486;13.424;2023-10-09T06:56:24;16.77;;;3.70;;
8675;SDS011;4375;52.486;13.424;2023-10-09T06:59:48;19.20;;;4.60;;
8675;SDS011;4375;52.486;13.424;2023-10-09T07:02:33;17.13;;;3.87;;
8675;SDS011;4375;52.486;13.424;2023-10-09T07:05:11;19.77;;;3.20;;
8675;SDS011;4375;52.486;13.424;2023-10-09T07:07:42;15.73;;;3.60;;
8675;SDS011;4375;52.486;13.424;2023-10-09T07:10:17;20.10;;;4.37;;
8675;SDS011;4375;52.486;13.424;2023-10-09T07:12:54;17.20;;;3.93;;
8675;SDS011;4375;52.486;13.424;2023-10-09T07:15:22;18.57;;;4.00;;
8675;SDS011;4375;52.486;13.424;2023-10-09T07:18:08;16.80;;;3.80;;
8675;SDS011;4375;52.486;13.424;2023-10-09T07:20:48;19.53;;;4.70;;
8675;SDS011;4375;52.486;13.424;2023-10-09T07:23:26;16.90;;;3.73;;
8675;SDS011;4375;52.486;13.424;2023-10-09T07:26:04;17.60;;;4.23;;
8675;SDS011;4375;52.486;13.424;2023-10-09T07:28:43;20.67;;;4.63;;
8675;SDS011;4375;52.486;13.424;2023-10-09T07:31:16;18.80;;;4.73;;
8675;SDS011;4375;52.486;13.424;2023-10-09T07:33:50;18.50;;;4.27;;
8675;SDS011;4375;52.486;13.424;2023-10-09T07:36:21;19.60;;;4.50;;
8675;SDS011;4375;52.486;13.424;2023-10-09T07:38:59;19.80;;;4.17;;
8675;SDS011;4375;52.486;13.424;2023-10-09T07:41:31;18.50;;;4.10;;
8675;SDS011;4375;52.486;13.424;2023-10-09T07:43:57;19.63;;;4.60;;
8675;SDS011;4375;52.486;13.424;2023-10-09T07:46:23;21.10;;;4.17;;
8675;SDS011;4375;52.486;13.424;2023-10-09T07:48:58;19.30;;;5.50;;
8675;SDS011;4375;52.486;13.424;2023-10-09T07:51:37;18.70;;;4.70;;
8675;SDS011;4375;52.486;13.424;2023-10-09T07:54:04;19.53;;;4.83;;
8675;SDS011;4375;52.486;13.424;2023-10-09T07:56:36;19.07;;;4.67;;
8675;SDS011;4375;52.486;13.424;2023-10-09T07:59:06;21.10;;;5.10;;
8675;SDS011;4375;52.486;13.424;2023-10-09T08:01:43;18.47;;;4.70;;
8675;SDS011;4375;52.486;13.424;2023-10-09T08:04:20;21.80;;;5.10;;
8675;SDS011;4375;52.486;13.424;2023-10-09T08:07:10;17.87;;;4.80;;
8675;SDS011;4375;52.486;13.424;2023-10-09T08:09:50;16.37;;;4.37;;
8675;SDS011;4375;52.486;13.424;2023-10-09T08:12:44;23.90;;;6.00;;
8675;SDS011;4375;52.486;13.424;2023-10-09T08:15:23;21.97;;;6.80;;
8675;SDS011;4375;52.486;13.424;2023-10-09T08:18:08;19.50;;;4.80;;
8675;SDS011;4375;52.486;13.424;2023-10-09T08:20:43;19.20;;;4.50;;
8675;SDS011;4375;52.486;13.424;2023-10-09T08:23:28;19.53;;;5.00;;
8675;SDS011;4375;52.486;13.424;2023-10-09T08:26:13;19.10;;;4.37;;
8675;SDS011;4375;52.486;13.424;2023-10-09T08:28:42;19.40;;;4.80;;
8675;SDS011;4375;52.486;13.424;2023-10-09T08:31:12;22.60;;;5.57;;
8675;SDS011;4375;52.486;13.424;2023-10-09T08:34:00;17.80;;;4.50;;
8675;SDS011;4375;52.486;13.424;2023-10-09T08:36:26;18.30;;;5.00;;
8675;SDS011;4375;52.486;13.424;2023-10-09T08:38:56;18.73;;;4.63;;
8675;SDS011;4375;52.486;13.424;2023-10-09T08:41:23;19.87;;;5.10;;
8675;SDS011;4375;52.486;13.424;2023-10-09T08:43:55;18.40;;;3.97;;
8675;SDS011;4375;52.486;13.424;2023-10-09T08:46:26;17.30;;;4.10;;
8675;SDS011;4375;52.486;13.424;2023-10-09T08:48:59;20.73;;;4.83;;
8675;SDS011;4375;52.486;13.424;2023-10-09T08:51:25;18.30;;;4.73;;
8675;SDS011;4375;52.486;13.424;2023-10-09T08:53:52;19.40;;;5.47;;
8675;SDS011;4375;52.486;13.424;2023-10-09T08:56:18;19.37;;;4.77;;
8675;SDS011;4375;52.486;13.424;2023-10-09T08:58:58;20.50;;;5.60;;
8675;SDS011;4375;52.486;13.424;2023-10-09T09:01:27;19.13;;;4.53;;
8675;SDS011;4375;52.486;13.424;2023-10-09T09:03:57;18.00;;;4.40;;
8675;SDS011;4375;52.486;13.424;2023-10-09T09:06:25;19.40;;;4.63;;
8675;SDS011;4375;52.486;13.424;2023-10-09T09:08:51;21.03;;;5.60;;
8675;SDS011;4375;52.486;13.424;2023-10-09T09:11:24;23.00;;;5.70;;
8675;SDS011;4375;52.486;13.424;2023-10-09T09:14:02;20.63;;;5.27;;
8675;SDS011;4375;52.486;13.424;2023-10-09T09:16:40;18.70;;;5.37;;
8675;SDS011;4375;52.486;13.424;2023-10-09T09:19:09;23.53;;;7.13;;
8675;SDS011;4375;52.486;13.424;2023-10-09T09:21:39;21.23;;;5.63;;
8675;SDS011;4375;52.486;13.424;2023-10-09T09:24:07;19.90;;;5.70;;
8675;SDS011;4375;52.486;13.424;2023-10-09T09:26:42;23.57;;;8.03;;
8675;SDS011;4375;52.486;13.424;2023-10-09T09:29:12;23.63;;;7.27;;
8675;SDS011;4375;52.486;13.424;2023-10-09T09:31:55;19.60;;;5.03;;
8675;SDS011;4375;52.486;13.424;2023-10-09T09:34:47;19.53;;;5.00;;
8675;SDS011;4375;52.486;13.424;2023-10-09T09:37:23;20.43;;;7.30;;
8675;SDS011;4375;52.486;13.424;2023-10-09T09:39:54;20.13;;;6.20;;
8675;SDS011;4375;52.486;13.424;2023-10-09T09:42:25;19.90;;;6.17;;
8675;SDS011;4375;52.486;13.424;2023-10-09T09:44:58;21.63;;;6.83;;
8675;SDS011;4375;52.486;13.424;2023-10-09T09:47:26;23.87;;;5.97;;
8675;SDS011;4375;52.486;13.424;2023-10-09T09:49:52;21.23;;;6.17;;
8675;SDS011;4375;52.486;13.424;2023-10-09T09:52:25;20.03;;;5.90;;
8675;SDS011;4375;52.486;13.424;2023-10-09T09:54:54;20.13;;;5.90;;
8675;SDS011;4375;52.486;13.424;2023-10-09T09:57:20;23.20;;;5.87;;
8675;SDS011;4375;52.486;13.424;2023-10-09T09:59:52;22.90;;;6.77;;
8675;SDS011;4375;52.486;13.424;2023-10-09T10:02:26;22.43;;;6.50;;
8675;SDS011;4375;52.486;13.424;2023-10-09T10:04:58;20.43;;;5.70;;
8675;SDS011;4375;52.486;13.424;2023-10-09T10:07:30;21.63;;;5.60;;
8675;SDS011;4375;52.486;13.424;2023-10-09T10:10:33;22.33;;;6.00;;
8675;SDS011;4375;52.486;13.424;2023-10-09T10:13:55;19.07;;;5.43;;
8675;SDS011;4375;52.486;13.424;2023-10-09T10:16:26;17.93;;;5.13;;
8675;SDS011;4375;52.486;13.424;2023-10-09T10:21:32;24.27;;;6.00;;
8675;SDS011;4375;52.486;13.424;2023-10-09T10:24:40;19.40;;;6.30;;
8675;SDS011;4375;52.486;13.424;2023-10-09T10:27:20;23.90;;;7.43;;
8675;SDS011;4375;52.486;13.424;2023-10-09T10:35:17;18.80;;;5.80;;
8675;SDS011;4375;52.486;13.424;2023-10-09T10:37:46;20.60;;;6.60;;
8675;SDS011;4375;52.486;13.424;2023-10-09T10:40:28;21.10;;;7.30;;
8675;SDS011;4375;52.486;13.424;2023-10-09T10:43:05;20.63;;;6.80;;
8675;SDS011;4375;52.486;13.424;2023-10-09T10:46:03;19.17;;;6.40;;
8675;SDS011;4375;52.486;13.424;2023-10-09T10:48:36;22.70;;;6.17;;
8675;SDS011;4375;52.486;13.424;2023-10-09T10:51:03;24.53;;;6.30;;
8675;SDS011;4375;52.486;13.424;2023-10-09T10:53:36;21.07;;;6.20;;
8675;SDS011;4375;52.486;13.424;2023-10-09T10:56:13;20.10;;;6.83;;
8675;SDS011;4375;52.486;13.424;2023-10-09T10:58:39;19.63;;;6.37;;
8675;SDS011;4375;52.486;13.424;2023-10-09T11:01:18;21.63;;;7.47;;
8675;SDS011;4375;52.486;13.424;2023-10-09T11:03:48;18.67;;;5.73;;
8675;SDS011;4375;52.486;13.424;2023-10-09T11:06:26;18.73;;;5.50;;
8675;SDS011;4375;52.486;13.424;2023-10-09T11:09:03;20.30;;;5.73;;
8675;SDS011;4375;52.486;13.424;2023-10-09T11:11:46;21.30;;;6.57;;
8675;SDS011;4375;52.486;13.424;2023-10-09T11:14:20;19.37;;;5.60;;
8675;SDS011;4375;52.486;13.424;2023-10-09T11:16:51;19.57;;;6.33;;
8675;SDS011;4375;52.486;13.424;2023-10-09T11:19:22;19.00;;;6.33;;
8675;SDS011;4375;52.486;13.424;2023-10-09T11:21:58;19.17;;;6.17;;
8675;SDS011;4375;52.486;13.424;2023-10-09T11:24:31;20.23;;;6.30;;
8675;SDS011;4375;52.486;13.424;2023-10-09T11:27:04;19.70;;;6.13;;
8675;SDS011;4375;52.486;13.424;2023-10-09T11:29:31;19.20;;;6.30;;
8675;SDS011;4375;52.486;13.424;2023-10-09T11:32:16;21.50;;;7.03;;
8675;SDS011;4375;52.486;13.424;2023-10-09T11:34:44;20.50;;;6.97;;
8675;SDS011;4375;52.486;13.424;2023-10-09T11:37:20;19.67;;;6.80;;
8675;SDS011;4375;52.486;13.424;2023-10-09T11:39:56;19.80;;;6.60;;
8675;SDS011;4375;52.486;13.424;2023-10-09T11:42:23;22.57;;;7.97;;
8675;SDS011;4375;52.486;13.424;2023-10-09T11:45:19;22.70;;;7.70;;
8675;SDS011;4375;52.486;13.424;2023-10-09T11:47:52;23.43;;;8.60;;
8675;SDS011;4375;52.486;13.424;2023-10-09T11:53:15;21.70;;;7.20;;
8675;SDS011;4375;52.486;13.424;2023-10-09T11:55:47;22.07;;;7.47;;
8675;SDS011;4375;52.486;13.424;2023-10-09T11:58:16;28.57;;;8.20;;
8675;SDS011;4375;52.486;13.424;2023-10-09T12:00:52;21.90;;;7.70;;
8675;SDS011;4375;52.486;13.424;2023-10-09T12:03:24;22.63;;;8.10;;
8675;SDS011;4375;52.486;13.424;2023-10-09T12:05:54;22.37;;;7.70;;
8675;SDS011;4375;52.486;13.424;2023-10-09T12:08:21;20.27;;;7.60;;
8675;SDS011;4375;52.486;13.424;2023-10-09T12:10:51;20.20;;;7.10;;
8675;SDS011;4375;52.486;13.424;2023-10-09T12:13:23;20.80;;;6.57;;
8675;SDS011;4375;52.486;13.424;2023-10-09T12:15:51;20.90;;;7.30;;
8675;SDS011;4375;52.486;13.424;2023-10-09T12:18:17;21.90;;;7.40;;
8675;SDS011;4375;52.486;13.424;2023-10-09T12:20:44;20.40;;;7.07;;
8675;SDS011;4375;52.486;13.424;2023-10-09T12:23:16;18.90;;;6.63;;
8675;SDS011;4375;52.486;13.424;2023-10-09T12:25:43;23.07;;;7.30;;
8675;SDS011;4375;52.486;13.424;2023-10-09T12:28:12;20.20;;;6.40;;
8675;SDS011;4375;52.486;13.424;2023-10-09T12:30:39;20.53;;;6.90;;
8675;SDS011;4375;52.486;13.424;2023-10-09T12:33:05;20.67;;;6.80;;
8675;SDS011;4375;52.486;13.424;2023-10-09T12:35:35;24.33;;;8.17;;
8675;SDS011;4375;52.486;13.424;2023-10-09T12:38:02;25.53;;;8.20;;
8675;SDS011;4375;52.486;13.424;2023-10-09T12:40:28;21.70;;;8.47;;
8675;SDS011;4375;52.486;13.424;2023-10-09T12:42:57;24.27;;;9.30;;
8675;SDS011;4375;52.486;13.424;2023-10-09T12:45:25;24.53;;;8.67;;
8675;SDS011;4375;52.486;13.424;2023-10-09T12:47:54;21.47;;;8.37;;
8675;SDS011;4375;52.486;13.424;2023-10-09T12:50:24;22.67;;;9.17;;
8675;SDS011;4375;52.486;13.424;2023-10-09T12:52:59;24.50;;;9.73;;
8675;SDS011;4375;52.486;13.424;2023-10-09T12:55:34;23.20;;;9.30;;
8675;SDS011;4375;52.486;13.424;2023-10-09T12:58:03;26.33;;;10.80;;
8675;SDS011;4375;52.486;13.424;2023-10-09T13:00:35;23.13;;;9.40;;
8675;SDS011;4375;52.486;13.424;2023-10-09T13:03:10;28.13;;;10.10;;
8675;SDS011;4375;52.486;13.424;2023-10-09T13:05:46;26.00;;;9.97;;
8675;SDS011;4375;52.486;13.424;2023-10-09T13:08:23;21.20;;;8.40;;
8675;SDS011;4375;52.486;13.424;2023-10-09T13:10:56;25.60;;;10.40;;
8675;SDS011;4375;52.486;13.424;2023-10-09T13:13:29;24.97;;;10.00;;
8675;SDS011;4375;52.486;13.424;2023-10-09T13:18:50;21.40;;;8.90;;
8675;SDS011;4375;52.486;13.424;2023-10-09T13:21:17;25.63;;;9.70;;
8675;SDS011;4375;52.486;13.424;2023-10-09T13:23:47;26.00;;;10.20;;
8675;SDS011;4375;52.486;13.424;2023-10-09T13:26:18;26.03;;;10.27;;
8675;SDS011;4375;52.486;13.424;2023-10-09T13:29:00;24.13;;;9.83;;
8675;SDS011;4375;52.486;13.424;2023-10-09T13:31:27;24.30;;;9.73;;
8675;SDS011;4375;52.486;13.424;2023-10-09T13:33:56;25.00;;;9.73;;
8675;SDS011;4375;52.486;13.424;2023-10-09T13:36:24;23.00;;;8.03;;
8675;SDS011;4375;52.486;13.424;2023-10-09T13:38:58;24.73;;;9.50;;
8675;SDS011;4375;52.486;13.424;2023-10-09T13:41:46;23.90;;;9.30;;
8675;SDS011;4375;52.486;13.424;2023-10-09T13:44:12;22.17;;;9.00;;
8675;SDS011;4375;52.486;13.424;2023-10-09T13:46:38;23.43;;;8.90;;
8675;SDS011;4375;52.486;13.424;2023-10-09T13:49:09;25.93;;;9.20;;
8675;SDS011;4375;52.486;13.424;2023-10-09T13:51:39;27.03;;;9.30;;
8675;SDS011;4375;52.486;13.424;2023-10-09T13:54:11;22.30;;;8.93;;
8675;SDS011;4375;52.486;13.424;2023-10-09T13:56:49;19.90;;;7.97;;
8675;SDS011;4375;52.486;13.424;2023-10-09T13:59:21;23.90;;;9.60;;
8675;SDS011;4375;52.486;13.424;2023-10-09T14:01:50;21.90;;;8.47;;
8675;SDS011;4375;52.486;13.424;2023-10-09T14:04:16;22.17;;;8.27;;
8675;SDS011;4375;52.486;13.424;2023-10-09T14:06:43;24.03;;;8.70;;
8675;SDS011;4375;52.486;13.424;2023-10-09T14:09:10;22.73;;;8.93;;
8675;SDS011;4375;52.486;13.424;2023-10-09T14:11:36;22.43;;;8.77;;
8675;SDS011;4375;52.486;13.424;2023-10-09T14:14:09;23.30;;;8.77;;
8675;SDS011;4375;52.486;13.424;2023-10-09T14:16:36;22.10;;;9.53;;
8675;SDS011;4375;52.486;13.424;2023-10-09T14:19:02;24.70;;;9.73;;
8675;SDS011;4375;52.486;13.424;2023-10-09T14:21:33;24.00;;;8.50;;
8675;SDS011;4375;52.486;13.424;2023-10-09T14:24:12;23.70;;;9.20;;
8675;SDS011;4375;52.486;13.424;2023-10-09T14:26:40;22.03;;;8.40;;
8675;SDS011;4375;52.486;13.424;2023-10-09T14:29:10;25.73;;;9.00;;
8675;SDS011;4375;52.486;13.424;2023-10-09T14:31:41;22.97;;;8.60;;
8675;SDS011;4375;52.486;13.424;2023-10-09T14:34:10;23.87;;;9.03;;
8675;SDS011;4375;52.486;13.424;2023-10-09T14:36:35;21.23;;;8.20;;
8675;SDS011;4375;52.486;13.424;2023-10-09T14:39:08;35.10;;;10.27;;
8675;SDS011;4375;52.486;13.424;2023-10-09T14:41:38;23.27;;;9.17;;
8675;SDS011;4375;52.486;13.424;2023-10-09T14:44:05;24.90;;;9.10;;
8675;SDS011;4375;52.486;13.424;2023-10-09T14:46:31;26.20;;;9.50;;
8675;SDS011;4375;52.486;13.424;2023-10-09T14:48:56;24.70;;;9.63;;
8675;SDS011;4375;52.486;13.424;2023-10-09T14:51:22;22.80;;;10.47;;
8675;SDS011;4375;52.486;13.424;2023-10-09T14:53:53;25.33;;;9.83;;
8675;SDS011;4375;52.486;13.424;2023-10-09T14:56:22;22.57;;;9.77;;
8675;SDS011;4375;52.486;13.424;2023-10-09T14:58:54;23.17;;;9.23;;
8675;SDS011;4375;52.486;13.424;2023-10-09T15:01:24;25.23;;;9.40;;
8675;SDS011;4375;52.486;13.424;2023-10-09T15:03:57;25.43;;;9.60;;
8675;SDS011;4375;52.486;13.424;2023-10-09T15:06:24;24.37;;;9.00;;
8675;SDS011;4375;52.486;13.424;2023-10-09T15:08:58;25.27;;;10.37;;
8675;SDS011;4375;52.486;13.424;2023-10-09T15:11:34;24.63;;;9.40;;
8675;SDS011;4375;52.486;13.424;2023-10-09T15:14:02;23.97;;;9.70;;
8675;SDS011;4375;52.486;13.424;2023-10-09T15:16:30;25.57;;;9.73;;
8675;SDS011;4375;52.486;13.424;2023-10-09T15:18:56;27.30;;;10.87;;
8675;SDS011;4375;52.486;13.424;2023-10-09T15:21:23;26.80;;;10.50;;
8675;SDS011;4375;52.486;13.424;2023-10-09T15:23:55;27.23;;;10.70;;
8675;SDS011;4375;52.486;13.424;2023-10-09T15:26:21;25.00;;;9.67;;
8675;SDS011;4375;52.486;13.424;2023-10-09T15:28:49;23.57;;;10.13;;
8675;SDS011;4375;52.486;13.424;2023-10-09T15:31:18;24.43;;;10.40;;
8675;SDS011;4375;52.486;13.424;2023-10-09T15:33:46;25.13;;;10.53;;
8675;SDS011;4375;52.486;13.424;2023-10-09T15:36:16;22.87;;;9.53;;
8675;SDS011;4375;52.486;13.424;2023-10-09T15:38:45;24.77;;;10.33;;
8675;SDS011;4375;52.486;13.424;2023-10-09T15:41:15;30.27;;;10.80;;
8675;SDS011;4375;52.486;13.424;2023-10-09T15:43:41;26.90;;;10.20;;
8675;SDS011;4375;52.486;13.424;2023-10-09T15:46:11;25.83;;;10.70;;
8675;SDS011;4375;52.486;13.424;2023-10-09T15:48:41;26.30;;;9.33;;
8675;SDS011;4375;52.486;13.424;2023-10-09T15:51:12;30.37;;;10.60;;
8675;SDS011;4375;52.486;13.424;2023-10-09T15:53:41;24.87;;;9.80;;
8675;SDS011;4375;52.486;13.424;2023-10-09T15:56:11;24.03;;;9.00;;
8675;SDS011;4375;52.486;13.424;2023-10-09T15:58:40;25.57;;;9.57;;
8675;SDS011;4375;52.486;13.424;2023-10-09T16:01:10;25.53;;;10.07;;
8675;SDS011;4375;52.486;13.424;2023-10-09T16:03:40;23.83;;;9.80;;
8675;SDS011;4375;52.486;13.424;2023-10-09T16:06:07;24.23;;;10.10;;
8675;SDS011;4375;52.486;13.424;2023-10-09T16:08:36;22.43;;;9.23;;
8675;SDS011;4375;52.486;13.424;2023-10-09T16:11:07;25.80;;;8.80;;
8675;SDS011;4375;52.486;13.424;2023-10-09T16:13:33;23.77;;;9.20;;
8675;SDS011;4375;52.486;13.424;2023-10-09T16:15:59;22.83;;;8.70;;
8675;SDS011;4375;52.486;13.424;2023-10-09T16:18:26;25.23;;;8.50;;
8675;SDS011;4375;52.486;13.424;2023-10-09T16:20:55;22.00;;;8.70;;
8675;SDS011;4375;52.486;13.424;2023-10-09T16:23:21;24.07;;;9.40;;
8675;SDS011;4375;52.486;13.424;2023-10-09T16:25:47;24.03;;;9.53;;
8675;SDS011;4375;52.486;13.424;2023-10-09T16:28:13;21.90;;;9.10;;
8675;SDS011;4375;52.486;13.424;2023-10-09T16:30:40;22.70;;;8.77;;
8675;SDS011;4375;52.486;13.424;2023-10-09T16:33:08;22.73;;;9.13;;
8675;SDS011;4375;52.486;13.424;2023-10-09T16:35:34;26.50;;;9.10;;
8675;SDS011;4375;52.486;13.424;2023-10-09T16:38:02;24.87;;;10.07;;
8675;SDS011;4375;52.486;13.424;2023-10-09T16:40:33;23.83;;;9.20;;
8675;SDS011;4375;52.486;13.424;2023-10-09T16:43:02;25.30;;;9.70;;
8675;SDS011;4375;52.486;13.424;2023-10-09T16:45:28;27.23;;;10.07;;
8675;SDS011;4375;52.486;13.424;2023-10-09T16:47:53;23.90;;;9.57;;
8675;SDS011;4375;52.486;13.424;2023-10-09T16:50:27;24.80;;;9.27;;
8675;SDS011;4375;52.486;13.424;2023-10-09T16:52:59;22.77;;;9.13;;
8675;SDS011;4375;52.486;13.424;2023-10-09T16:55:25;25.53;;;9.50;;
8675;SDS011;4375;52.486;13.424;2023-10-09T16:57:52;24.97;;;9.60;;
8675;SDS011;4375;52.486;13.424;2023-10-09T17:00:18;23.37;;;9.20;;
8675;SDS011;4375;52.486;13.424;2023-10-09T17:02:56;23.87;;;9.17;;
8675;SDS011;4375;52.486;13.424;2023-10-09T17:05:22;32.13;;;10.17;;
8675;SDS011;4375;52.486;13.424;2023-10-09T17:07:53;23.90;;;10.13;;
8675;SDS011;4375;52.486;13.424;2023-10-09T17:10:20;27.33;;;10.30;;
8675;SDS011;4375;52.486;13.424;2023-10-09T17:12:50;22.60;;;8.77;;
8675;SDS011;4375;52.486;13.424;2023-10-09T17:15:17;22.10;;;8.90;;
8675;SDS011;4375;52.486;13.424;2023-10-09T17:17:46;23.47;;;10.03;;
8675;SDS011;4375;52.486;13.424;2023-10-09T17:20:16;24.80;;;10.00;;
8675;SDS011;4375;52.486;13.424;2023-10-09T17:22:42;24.90;;;9.30;;
8675;SDS011;4375;52.486;13.424;2023-10-09T17:25:11;26.07;;;10.27;;
8675;SDS011;4375;52.486;13.424;2023-10-09T17:27:40;27.80;;;11.10;;
8675;SDS011;4375;52.486;13.424;2023-10-09T17:30:06;23.80;;;9.53;;
8675;SDS011;4375;52.486;13.424;2023-10-09T17:32:33;24.10;;;11.00;;
8675;SDS011;4375;52.486;13.424;2023-10-09T17:35:01;22.47;;;10.10;;
8675;SDS011;4375;52.486;13.424;2023-10-09T17:37:27;24.33;;;10.00;;
8675;SDS011;4375;52.486;13.424;2023-10-09T17:39:53;24.40;;;10.30;;
8675;SDS011;4375;52.486;13.424;2023-10-09T17:42:19;25.70;;;9.80;;
8675;SDS011;4375;52.486;13.424;2023-10-09T17:44:45;30.40;;;10.30;;
8675;SDS011;4375;52.486;13.424;2023-10-09T17:47:12;24.67;;;10.00;;
8675;SDS011;4375;52.486;13.424;2023-10-09T17:49:38;24.43;;;9.40;;
8675;SDS011;4375;52.486;13.424;2023-10-09T17:52:03;23.67;;;9.10;;
8675;SDS011;4375;52.486;13.424;2023-10-09T17:54:31;24.10;;;9.30;;
8675;SDS011;4375;52.486;13.424;2023-10-09T17:56:57;22.87;;;8.87;;
8675;SDS011;4375;52.486;13.424;2023-10-09T17:59:25;25.03;;;9.77;;
8675;SDS011;4375;52.486;13.424;2023-10-09T18:01:52;23.87;;;8.90;;
8675;SDS011;4375;52.486;13.424;2023-10-09T18:04:18;22.07;;;8.70;;
8675;SDS011;4375;52.486;13.424;2023-10-09T18:06:44;24.60;;;9.60;;
8675;SDS011;4375;52.486;13.424;2023-10-09T18:09:10;23.17;;;9.00;;
8675;SDS011;4375;52.486;13.424;2023-10-09T18:11:42;25.80;;;9.10;;
8675;SDS011;4375;52.486;13.424;2023-10-09T18:14:13;22.77;;;8.50;;